Time;durP1;ratioP1;P1;durP2;ratioP2;P2;SDS_P1;SDS_P2;PMS_P1;PMS_P2;Temp;Humidity;BMP_temperature;BMP_pressure;BME280_temperature;BME280_humidity;BME280_pressure;Samples;Min_cycle;Max_cycle;Signal;HPM_P1;HPM_P2
2022/08/08 00:02:20;;;;;;;11.32;9.05;;;14.10;87.50;;;;;;5083249;28;20033;-43
2022/08/08 00:04:54;;;;;;;8.20;7.15;;;14.10;87.40;;;;;;5070739;28;20404;-43
2022/08/08 00:07:38;;;;;;;9.60;7.68;;;14.10;87.30;;;;;;5057582;28;20025;-43
2022/08/08 00:10:10;;;;;;;11.13;8.10;;;14.10;87.20;;;;;;5063979;28;20032;-43
2022/08/08 00:12:50;;;;;;;10.90;7.90;;;14.10;87.20;;;;;;5068517;28;20039;-46
2022/08/08 00:15:22;;;;;;;;;;;14.10;87.30;;;;;;5068760;28;20036;-43
2022/08/08 00:17:56;;;;;;;10.95;8.77;;;14.00;87.10;;;;;;5060392;28;19970;-43
2022/08/08 00:20:27;;;;;;;12.07;8.20;;;14.10;87.30;;;;;;5069538;28;20043;-44
2022/08/08 00:23:03;;;;;;;11.77;9.45;;;14.00;87.20;;;;;;5071372;28;20529;-43
2022/08/08 00:25:37;;;;;;;10.40;9.30;;;13.90;87.30;;;;;;5059816;28;20043;-45
2022/08/08 00:28:06;;;;;;;9.13;8.23;;;13.90;87.30;;;;;;5062001;28;20536;-43
2022/08/08 00:30:36;;;;;;;11.23;9.88;;;13.90;87.40;;;;;;5065927;28;20028;-44
2022/08/08 00:33:07;;;;;;;11.10;9.02;;;13.90;87.20;;;;;;5052712;28;20031;-44
2022/08/08 00:35:33;;;;;;;11.15;9.50;;;13.90;87.30;;;;;;5054730;28;20427;-47
2022/08/08 00:38:07;;;;;;;12.13;10.55;;;13.90;87.50;;;;;;5070297;28;20029;-43
2022/08/08 00:41:06;;;;;;;12.68;10.55;;;13.90;87.60;;;;;;5069526;28;20024;-43
2022/08/08 00:43:59;;;;;;;12.00;10.38;;;13.90;87.80;;;;;;5065171;28;20052;-43
2022/08/08 00:46:52;;;;;;;12.63;9.75;;;13.80;87.80;;;;;;5062161;28;20136;-43
2022/08/08 00:49:43;;;;;;;9.90;8.90;;;13.90;87.90;;;;;;5070974;28;20035;-45
2022/08/08 00:52:23;;;;;;;12.25;10.70;;;13.80;87.80;;;;;;5056955;28;20028;-44
2022/08/08 00:55:26;;;;;;;12.50;10.10;;;13.80;88.00;;;;;;5106815;28;20147;-43
2022/08/08 00:58:23;;;;;;;12.15;9.02;;;13.80;88.00;;;;;;5093560;28;20539;-43
2022/08/08 01:01:08;;;;;;;10.38;9.27;;;13.80;88.00;;;;;;5104475;28;20048;-43
2022/08/08 01:04:08;;;;;;;9.57;8.68;;;13.80;88.00;;;;;;5089559;28;20035;-43
2022/08/08 01:07:14;;;;;;;10.63;9.52;;;13.80;87.90;;;;;;5079193;28;20028;-43
2022/08/08 01:10:08;;;;;;;9.80;8.80;;;13.70;88.20;;;;;;5053185;28;20035;-42
2022/08/08 01:13:13;;;;;;;10.95;9.23;;;13.60;88.10;;;;;;5080640;28;20048;-43
2022/08/08 01:16:03;;;;;;;11.82;8.95;;;13.60;88.10;;;;;;5085172;28;20119;-44
2022/08/08 01:18:41;;;;;;;10.90;8.80;;;13.50;88.20;;;;;;5053925;28;20469;-43
2022/08/08 01:21:41;;;;;;;9.52;8.55;;;13.40;88.20;;;;;;5071440;28;20036;-42
2022/08/08 01:24:34;;;;;;;10.48;8.32;;;13.50;88.30;;;;;;5043853;28;20412;-43
2022/08/08 01:27:33;;;;;;;10.00;8.65;;;13.40;88.00;;;;;;5082763;28;20020;-43
2022/08/08 01:30:24;;;;;;;8.25;7.50;;;13.40;87.90;;;;;;5060141;28;20197;-44
2022/08/08 01:33:08;;;;;;;9.57;8.48;;;13.40;88.10;;;;;;5071121;28;20361;-44
2022/08/08 01:35:51;;;;;;;10.52;7.78;;;13.40;87.70;;;;;;5070077;28;20029;-43
2022/08/08 01:38:25;;;;;;;8.60;7.65;;;13.40;87.80;;;;;;5070197;28;20029;-43
2022/08/08 01:41:29;;;;;;;12.05;9.00;;;13.40;88.00;;;;;;5070868;28;20062;-43
2022/08/08 01:44:00;;;;;;;9.07;7.95;;;13.40;87.80;;;;;;5068399;28;20118;-42
2022/08/08 01:46:38;;;;;;;10.02;8.05;;;13.40;88.10;;;;;;5064666;28;20453;-44
2022/08/08 01:49:15;;;;;;;9.95;8.60;;;13.40;88.00;;;;;;5069437;28;20031;-43
2022/08/08 01:51:50;;;;;;;9.43;7.38;;;13.40;88.10;;;;;;5063227;28;20095;-43
2022/08/08 01:54:42;;;;;;;9.70;7.65;;;13.30;88.30;;;;;;5050688;28;20039;-43
2022/08/08 01:57:31;;;;;;;8.40;6.78;;;13.40;88.30;;;;;;5065343;28;20507;-43
2022/08/08 02:00:25;;;;;;;8.77;6.70;;;13.30;88.20;;;;;;5049519;28;20028;-43
2022/08/08 02:03:07;;;;;;;6.63;5.93;;;13.30;88.20;;;;;;5054286;28;20086;-42
2022/08/08 02:05:57;;;;;;;9.82;6.57;;;13.30;88.20;;;;;;5066000;28;20043;-43
2022/08/08 02:08:55;;;;;;;6.80;5.88;;;13.20;88.30;;;;;;5065347;28;20032;-45
2022/08/08 02:11:38;;;;;;;10.18;6.25;;;13.30;88.30;;;;;;5066204;28;20017;-45
2022/08/08 02:14:32;;;;;;;8.38;6.55;;;13.20;88.20;;;;;;5064245;28;20021;-43
2022/08/08 02:17:03;;;;;;;6.63;5.80;;;13.20;88.40;;;;;;5066210;28;20051;-45
2022/08/08 02:19:44;;;;;;;8.77;5.60;;;13.20;88.40;;;;;;5063417;28;20038;-43
2022/08/08 02:22:33;;;;;;;8.98;6.20;;;13.20;88.50;;;;;;5083536;28;20024;-45
2022/08/08 02:25:09;;;;;;;7.10;5.88;;;13.20;88.50;;;;;;5065787;28;20041;-45
2022/08/08 02:27:42;;;;;;;6.10;5.43;;;13.20;88.70;;;;;;5065303;28;20433;-44
2022/08/08 02:30:16;;;;;;;6.20;5.60;;;13.20;88.70;;;;;;5063157;28;20032;-43
2022/08/08 02:33:04;;;;;;;5.38;4.63;;;13.20;88.70;;;;;;5073272;28;20087;-42
2022/08/08 02:35:40;;;;;;;6.22;4.88;;;13.20;88.50;;;;;;5050234;28;20450;-43
2022/08/08 02:38:37;;;;;;;7.80;4.38;;;13.20;88.50;;;;;;5063786;28;20059;-42
2022/08/08 02:41:36;;;;;;;6.95;4.88;;;13.10;88.40;;;;;;5034331;28;20045;-43
2022/08/08 02:44:08;;;;;;;;;;;13.10;88.50;;;;;;5052423;28;20081;-43
2022/08/08 02:46:58;;;;;;;9.88;5.53;;;13.10;88.60;;;;;;5051157;28;19916;-43
2022/08/08 02:50:07;;;;;;;5.90;4.60;;;13.10;88.60;;;;;;5061226;28;20029;-43
2022/08/08 02:52:46;;;;;;;5.18;4.28;;;13.20;88.60;;;;;;5052888;28;20029;-46
2022/08/08 02:55:30;;;;;;;6.57;4.85;;;13.20;88.50;;;;;;5080957;28;20335;-42
2022/08/08 02:58:39;;;;;;;7.45;4.88;;;13.20;88.70;;;;;;5067551;28;20357;-45
2022/08/08 03:01:34;;;;;;;5.35;4.70;;;13.20;88.70;;;;;;5061979;28;20078;-45
2022/08/08 03:04:15;;;;;;;6.70;5.55;;;13.10;88.90;;;;;;5087944;28;20088;-44
2022/08/08 03:07:17;;;;;;;9.68;5.90;;;13.20;88.90;;;;;;5068470;28;20032;-43
2022/08/08 03:09:55;;;;;;;6.32;5.47;;;13.10;89.00;;;;;;5067634;28;20477;-45
2022/08/08 03:12:29;;;;;;;6.97;5.85;;;13.20;89.10;;;;;;5066984;28;20051;-44
2022/08/08 03:15:20;;;;;;;7.65;5.75;;;13.20;89.20;;;;;;5063262;28;20430;-45
2022/08/08 03:17:59;;;;;;;13.40;6.82;;;13.30;89.20;;;;;;5047834;28;20474;-44
2022/08/08 03:20:24;;;;;;;8.67;6.87;;;13.20;89.20;;;;;;5047149;28;20466;-42
2022/08/08 03:22:52;;;;;;;7.20;6.50;;;13.30;89.20;;;;;;5049581;28;20121;-42
2022/08/08 03:25:21;;;;;;;5.95;5.28;;;13.30;89.30;;;;;;5047994;28;20626;-43
2022/08/08 03:27:58;;;;;;;7.20;5.65;;;13.30;89.20;;;;;;5065715;28;20028;-42
2022/08/08 03:30:24;;;;;;;8.73;5.95;;;13.40;89.30;;;;;;5063390;28;20091;-44
2022/08/08 03:35:42;;;;;;;7.35;6.55;;;13.40;89.20;;;;;;5048295;28;20122;-42
2022/08/08 03:38:08;;;;;;;6.72;5.35;;;13.30;89.20;;;;;;5059272;28;20082;-43
2022/08/08 03:40:34;;;;;;;6.10;5.38;;;13.40;89.00;;;;;;5057735;28;20373;-43
2022/08/08 03:43:01;;;;;;;9.93;6.00;;;13.40;88.80;;;;;;5057251;28;20054;-44
2022/08/08 03:45:28;;;;;;;6.45;5.32;;;13.40;88.60;;;;;;5086321;28;20031;-43
2022/08/08 03:48:01;;;;;;;8.55;6.10;;;13.40;88.60;;;;;;5087152;28;20396;-43
2022/08/08 03:50:28;;;;;;;6.32;5.07;;;13.40;88.60;;;;;;5068269;28;20039;-42
2022/08/08 03:52:54;;;;;;;9.15;5.07;;;13.40;88.50;;;;;;5065486;28;20463;-42
2022/08/08 03:55:22;;;;;;;6.47;5.72;;;13.40;88.60;;;;;;5087032;28;20465;-42
2022/08/08 03:57:50;;;;;;;7.03;5.55;;;13.40;88.70;;;;;;5070070;28;20139;-42
2022/08/08 04:00:20;;;;;;;7.70;5.55;;;13.40;88.60;;;;;;5051198;28;20075;-44
2022/08/08 04:03:04;;;;;;;8.02;5.75;;;13.40;88.70;;;;;;5067842;28;20036;-42
2022/08/08 04:05:37;;;;;;;7.82;5.40;;;13.40;88.80;;;;;;5072481;28;20032;-42
2022/08/08 04:08:05;;;;;;;6.20;5.00;;;13.50;88.80;;;;;;5072521;28;20048;-44
2022/08/08 04:10:32;;;;;;;7.50;5.72;;;13.40;88.60;;;;;;5075886;28;20027;-42
2022/08/08 04:12:59;;;;;;;6.28;5.68;;;13.40;88.70;;;;;;5089990;28;20012;-44
2022/08/08 04:15:28;;;;;;;7.68;6.07;;;13.40;88.70;;;;;;5088621;28;20098;-42
2022/08/08 04:17:53;;;;;;;6.95;6.25;;;13.40;88.80;;;;;;5064233;28;20123;-42
2022/08/08 04:20:19;;;;;;;8.05;6.15;;;13.50;88.80;;;;;;5073052;28;20110;-42
2022/08/08 04:22:45;;;;;;;11.88;5.70;;;13.50;88.80;;;;;;5066484;28;20086;-43
2022/08/08 04:25:11;;;;;;;7.38;6.15;;;13.50;88.90;;;;;;5071172;28;20349;-43
2022/08/08 04:27:37;;;;;;;9.88;6.32;;;13.50;88.90;;;;;;5080802;28;20020;-43
2022/08/08 04:30:05;;;;;;;8.10;6.78;;;13.50;89.00;;;;;;5082515;28;20024;-43
2022/08/08 04:32:32;;;;;;;9.40;6.18;;;13.60;88.90;;;;;;5074445;28;20115;-42
2022/08/08 04:34:57;;;;;;;9.15;5.75;;;13.60;89.00;;;;;;5091120;28;20023;-42
2022/08/08 04:37:23;;;;;;;6.93;6.22;;;13.70;89.00;;;;;;5072359;28;20032;-43
2022/08/08 04:39:50;;;;;;;6.75;6.05;;;13.70;89.00;;;;;;5090810;28;20031;-42
2022/08/08 04:42:15;;;;;;;5.28;4.22;;;13.80;88.90;;;;;;5075821;28;20036;-43
2022/08/08 04:44:41;;;;;;;6.75;5.72;;;13.80;89.00;;;;;;5070719;28;20055;-42
2022/08/08 04:47:07;;;;;;;7.18;5.18;;;13.90;89.00;;;;;;5068553;28;20473;-43
2022/08/08 04:49:36;;;;;;;6.75;5.35;;;13.90;89.00;;;;;;5084915;28;20103;-42
2022/08/08 04:52:01;;;;;;;6.32;4.90;;;13.90;89.00;;;;;;5090355;28;20028;-44
2022/08/08 04:54:27;;;;;;;6.32;4.75;;;14.00;88.90;;;;;;5083075;28;20321;-46
2022/08/08 04:56:53;;;;;;;10.38;5.30;;;14.10;89.00;;;;;;5111176;28;20456;-43
2022/08/08 04:59:19;;;;;;;8.00;4.80;;;14.10;88.90;;;;;;5103557;28;20032;-43
2022/08/08 05:01:47;;;;;;;6.78;4.70;;;14.20;88.70;;;;;;5058293;28;20033;-45
2022/08/08 05:04:13;;;;;;;7.38;4.50;;;14.20;88.70;;;;;;5080653;28;20204;-42
2022/08/08 05:06:38;;;;;;;5.78;4.50;;;14.30;88.70;;;;;;5090348;28;20477;-43
2022/08/08 05:09:04;;;;;;;5.75;4.50;;;14.30;88.50;;;;;;5052652;28;20111;-44
2022/08/08 05:11:31;;;;;;;9.40;5.28;;;14.30;88.40;;;;;;5071127;28;20051;-46
2022/08/08 05:13:56;;;;;;;5.55;4.18;;;14.40;88.30;;;;;;5063773;28;20452;-42
2022/08/08 05:16:22;;;;;;;5.70;3.95;;;14.40;88.20;;;;;;5079203;28;20025;-48
2022/08/08 05:18:48;;;;;;;7.50;4.88;;;14.50;88.10;;;;;;5074864;28;20024;-42
2022/08/08 05:21:14;;;;;;;7.43;4.40;;;14.50;88.10;;;;;;5072012;28;20319;-42
2022/08/08 05:23:40;;;;;;;5.20;3.85;;;14.60;87.90;;;;;;5076964;28;20036;-43
2022/08/08 05:26:07;;;;;;;7.35;3.90;;;14.60;88.00;;;;;;5077241;28;20107;-43
2022/08/08 05:28:33;;;;;;;8.00;4.65;;;14.60;87.90;;;;;;5089853;28;20024;-42
2022/08/08 05:30:59;;;;;;;4.43;3.72;;;14.60;87.90;;;;;;5082945;28;20103;-43
2022/08/08 05:33:24;;;;;;;5.15;4.30;;;14.80;88.00;;;;;;5087834;28;20032;-45
2022/08/08 05:35:52;;;;;;;5.93;3.78;;;14.90;88.00;;;;;;5086257;28;20035;-43
2022/08/08 05:38:24;;;;;;;8.10;4.57;;;14.90;87.90;;;;;;5082632;28;20120;-48
2022/08/08 05:40:52;;;;;;;9.35;5.63;;;14.90;87.90;;;;;;5052015;28;20035;-42
2022/08/08 05:43:29;;;;;;;6.13;4.68;;;15.00;88.00;;;;;;5076783;28;20055;-45
2022/08/08 05:46:06;;;;;;;5.25;4.55;;;15.10;88.00;;;;;;5067097;28;20051;-42
2022/08/08 05:48:32;;;;;;;8.30;4.97;;;15.20;87.90;;;;;;5089604;28;20099;-43
2022/08/08 05:50:58;;;;;;;7.32;5.32;;;15.30;87.90;;;;;;5076320;28;20108;-43
2022/08/08 05:53:27;;;;;;;7.80;5.15;;;15.30;87.50;;;;;;5058016;28;20423;-44
2022/08/08 05:55:58;;;;;;;8.35;5.18;;;15.30;87.80;;;;;;5066121;28;20043;-45
2022/08/08 05:58:29;;;;;;;6.38;4.63;;;15.40;87.80;;;;;;5069341;28;20090;-46
2022/08/08 06:00:56;;;;;;;5.40;3.67;;;15.50;87.70;;;;;;5070410;28;20033;-43
2022/08/08 06:03:23;;;;;;;11.27;6.00;;;15.60;87.60;;;;;;5070820;28;20086;-44
2022/08/08 06:05:50;;;;;;;9.30;5.57;;;15.70;87.40;;;;;;5081046;28;20024;-42
2022/08/08 06:08:33;;;;;;;8.85;5.82;;;15.70;87.10;;;;;;5081465;28;20085;-45
2022/08/08 06:10:59;;;;;;;8.48;5.72;;;15.90;87.40;;;;;;5073732;28;20361;-43
2022/08/08 06:13:27;;;;;;;6.28;4.47;;;16.00;87.30;;;;;;5086105;28;20444;-43
2022/08/08 06:15:54;;;;;;;10.07;5.53;;;16.10;87.10;;;;;;5087584;28;20024;-48
2022/08/08 06:18:24;;;;;;;11.02;5.60;;;16.30;86.60;;;;;;5088140;28;20115;-48
2022/08/08 06:20:55;;;;;;;7.90;4.88;;;16.30;85.90;;;;;;5088412;28;20363;-44
2022/08/08 06:23:21;;;;;;;6.95;4.45;;;16.40;86.00;;;;;;5087091;28;20345;-44
2022/08/08 06:26:02;;;;;;;6.28;4.10;;;16.40;85.70;;;;;;5068236;28;20048;-44
2022/08/08 06:28:33;;;;;;;7.75;5.20;;;16.50;85.70;;;;;;5084087;28;20038;-44
2022/08/08 06:31:01;;;;;;;7.18;4.53;;;16.60;85.30;;;;;;5067386;28;20107;-44
2022/08/08 06:33:37;;;;;;;8.88;5.53;;;16.60;84.90;;;;;;5069139;28;20028;-44
2022/08/08 06:36:05;;;;;;;7.22;3.97;;;16.50;84.30;;;;;;5087169;28;20027;-44
2022/08/08 06:38:35;;;;;;;8.30;4.93;;;16.50;84.50;;;;;;5066656;28;20028;-44
2022/08/08 06:41:07;;;;;;;7.97;4.38;;;16.70;84.70;;;;;;5087780;28;20457;-45
2022/08/08 06:43:35;;;;;;;7.90;4.55;;;16.70;84.50;;;;;;5087094;28;20334;-44
2022/08/08 06:46:04;;;;;;;9.80;4.50;;;16.80;84.20;;;;;;5083921;28;20110;-45
2022/08/08 06:48:30;;;;;;;7.03;4.22;;;16.70;83.30;;;;;;5086274;28;20107;-49
2022/08/08 06:50:58;;;;;;;6.78;3.92;;;16.80;83.30;;;;;;5088270;28;20125;-44
2022/08/08 06:53:24;;;;;;;7.57;4.35;;;16.80;83.20;;;;;;5085466;28;20039;-44
2022/08/08 06:55:50;;;;;;;6.63;4.45;;;16.80;83.20;;;;;;5070636;28;20116;-43
2022/08/08 06:58:16;;;;;;;7.35;3.72;;;16.70;83.50;;;;;;5087960;28;20155;-44
2022/08/08 07:00:48;;;;;;;6.70;2.95;;;16.60;83.60;;;;;;5067476;28;20028;-44
2022/08/08 07:03:25;;;;;;;5.05;3.42;;;16.60;83.80;;;;;;5087403;28;20097;-45
2022/08/08 07:05:55;;;;;;;8.57;4.18;;;16.70;83.90;;;;;;5080867;28;20369;-48
2022/08/08 07:08:28;;;;;;;;;;;16.70;84.10;;;;;;5080782;28;20032;-45
2022/08/08 07:10:58;;;;;;;4.78;3.35;;;16.80;84.10;;;;;;5084741;28;19908;-44
2022/08/08 07:13:31;;;;;;;5.75;3.35;;;16.90;84.20;;;;;;5084849;28;20086;-48
2022/08/08 07:16:27;;;;;;;10.00;5.47;;;17.20;84.80;;;;;;5083738;28;20534;-47
2022/08/08 07:19:07;;;;;;;10.13;5.82;;;17.40;84.90;;;;;;5063210;28;20044;-45
2022/08/08 07:21:45;;;;;;;8.90;5.10;;;17.50;84.80;;;;;;5082222;28;20020;-45
2022/08/08 07:24:32;;;;;;;10.50;4.32;;;17.70;84.00;;;;;;5071703;28;20449;-46
2022/08/08 07:26:59;;;;;;;13.00;4.28;;;17.80;83.70;;;;;;5087397;28;20040;-46
2022/08/08 07:29:25;;;;;;;11.68;3.38;;;17.90;83.30;;;;;;5063656;28;20024;-46
2022/08/08 07:31:54;;;;;;;8.05;3.03;;;17.90;82.40;;;;;;5070160;28;20038;-46
2022/08/08 07:34:20;;;;;;;9.05;2.80;;;18.10;81.50;;;;;;5067580;28;20587;-46
2022/08/08 07:36:48;;;;;;;7.10;2.85;;;18.40;82.00;;;;;;5083521;28;20064;-45
2022/08/08 07:39:17;;;;;;;8.52;2.40;;;18.70;80.00;;;;;;5088194;28;20036;-45
2022/08/08 07:41:48;;;;;;;6.45;2.30;;;19.10;78.40;;;;;;5080419;28;20044;-45
2022/08/08 07:44:17;;;;;;;5.45;1.83;;;19.50;77.70;;;;;;5091487;28;20369;-45
2022/08/08 07:46:43;;;;;;;;;;;20.00;75.20;;;;;;5090443;28;20053;-49
2022/08/08 07:49:12;;;;;;;6.15;1.67;;;20.20;74.90;;;;;;5076375;28;19944;-46
2022/08/08 07:51:39;;;;;;;4.03;1.80;;;20.40;73.60;;;;;;5086317;28;20468;-47
2022/08/08 07:54:19;;;;;;;5.10;2.08;;;20.60;72.70;;;;;;5067246;28;20098;-46
2022/08/08 07:56:51;;;;;;;5.97;2.30;;;20.70;72.20;;;;;;5085152;28;20012;-46
2022/08/08 07:59:19;;;;;;;6.50;1.65;;;21.00;73.60;;;;;;5073243;28;20024;-46
2022/08/08 08:02:02;;;;;;;6.00;2.20;;;21.10;72.50;;;;;;5088305;28;20020;-47
2022/08/08 08:04:32;;;;;;;4.80;1.50;;;21.40;71.80;;;;;;5086862;28;20124;-51
2022/08/08 08:07:01;;;;;;;6.30;1.85;;;21.80;72.20;;;;;;5071138;28;20019;-48
2022/08/08 08:09:38;;;;;;;3.58;1.38;;;22.10;69.20;;;;;;5085396;28;20020;-46
2022/08/08 08:12:08;;;;;;;5.78;2.10;;;22.40;68.00;;;;;;5084917;28;20158;-46
2022/08/08 08:14:52;;;;;;;5.57;2.00;;;22.10;67.10;;;;;;5087749;28;20373;-48
2022/08/08 08:17:24;;;;;;;6.00;2.05;;;21.40;68.40;;;;;;5088565;28;20049;-47
2022/08/08 08:20:01;;;;;;;7.43;1.85;;;20.90;69.50;;;;;;5062585;28;20069;-47
2022/08/08 08:22:26;;;;;;;5.95;1.67;;;20.40;71.40;;;;;;5089620;28;20043;-47
2022/08/08 08:24:52;;;;;;;5.38;1.63;;;19.90;71.10;;;;;;5067288;28;20024;-46
2022/08/08 08:27:18;;;;;;;6.22;1.70;;;19.60;71.40;;;;;;5078570;28;20669;-49
2022/08/08 08:29:44;;;;;;;5.45;1.40;;;19.50;72.20;;;;;;5079837;28;20101;-47
2022/08/08 08:32:10;;;;;;;6.53;1.70;;;19.40;72.20;;;;;;5088446;28;20064;-46
2022/08/08 08:34:38;;;;;;;6.85;1.67;;;19.30;73.00;;;;;;5086296;28;20089;-46
2022/08/08 08:37:04;;;;;;;3.22;1.30;;;19.20;73.00;;;;;;5091543;28;20587;-45
2022/08/08 08:39:29;;;;;;;5.10;1.60;;;19.20;73.60;;;;;;5078178;28;20036;-46
2022/08/08 08:41:57;;;;;;;3.80;1.38;;;19.30;74.60;;;;;;5082917;28;20035;-46
2022/08/08 08:44:29;;;;;;;5.55;1.90;;;19.40;74.30;;;;;;5060842;28;20085;-47
2022/08/08 08:46:56;;;;;;;6.45;2.60;;;19.40;75.30;;;;;;5068933;28;20361;-47
2022/08/08 08:49:21;;;;;;;3.00;1.73;;;19.50;75.50;;;;;;5069706;28;20039;-46
2022/08/08 08:51:49;;;;;;;4.55;1.50;;;19.50;75.40;;;;;;5070733;28;20024;-46
2022/08/08 08:54:20;;;;;;;4.85;1.80;;;19.60;75.70;;;;;;5058482;28;20102;-45
2022/08/08 08:56:46;;;;;;;5.78;1.70;;;19.70;76.70;;;;;;5086386;28;20020;-46
2022/08/08 08:59:12;;;;;;;4.28;1.40;;;19.70;76.10;;;;;;5070258;28;20047;-47
2022/08/08 09:01:41;;;;;;;5.80;1.85;;;19.60;75.70;;;;;;5058732;28;20060;-47
2022/08/08 09:04:18;;;;;;;4.22;2.10;;;19.60;75.80;;;;;;5081382;28;20033;-45
2022/08/08 09:06:45;;;;;;;5.13;1.42;;;19.50;75.90;;;;;;5069937;28;20035;-44
2022/08/08 09:09:25;;;;;;;4.35;1.60;;;19.50;76.40;;;;;;5056953;28;20089;-46
2022/08/08 09:11:53;;;;;;;6.65;1.73;;;19.50;76.00;;;;;;5068929;28;20523;-46
2022/08/08 09:14:24;;;;;;;5.25;2.22;;;19.60;76.00;;;;;;5052310;28;20032;-45
2022/08/08 09:16:51;;;;;;;5.32;1.50;;;19.70;77.10;;;;;;5051245;28;20021;-46
2022/08/08 09:19:20;;;;;;;4.05;1.40;;;19.80;77.20;;;;;;5068180;28;20034;-45
2022/08/08 09:21:47;;;;;;;5.80;2.13;;;19.90;76.70;;;;;;5069859;28;20517;-46
2022/08/08 09:24:18;;;;;;;5.97;1.67;;;20.00;76.50;;;;;;5054944;28;20051;-45
2022/08/08 09:26:56;;;;;;;7.43;2.92;;;20.10;75.20;;;;;;5065033;28;20041;-46
2022/08/08 09:29:25;;;;;;;3.80;1.40;;;20.10;74.80;;;;;;5067078;28;20025;-47
2022/08/08 09:32:02;;;;;;;7.95;1.60;;;20.10;75.10;;;;;;5058867;28;20034;-47
2022/08/08 09:34:32;;;;;;;5.50;1.75;;;20.30;75.30;;;;;;5056429;28;20024;-46
2022/08/08 09:37:03;;;;;;;5.80;2.22;;;20.60;74.90;;;;;;5054538;28;20096;-50
2022/08/08 09:39:41;;;;;;;4.35;1.35;;;20.90;74.80;;;;;;5049470;28;20037;-45
2022/08/08 09:42:10;;;;;;;10.30;1.90;;;21.10;73.10;;;;;;5053598;28;20021;-47
2022/08/08 09:45:02;;;;;;;4.75;1.60;;;21.10;73.70;;;;;;5070069;28;20515;-46
2022/08/08 09:47:34;;;;;;;5.25;1.75;;;21.00;72.00;;;;;;5072256;28;20028;-47
2022/08/08 09:50:12;;;;;;;6.60;2.03;;;21.10;73.20;;;;;;5089349;28;20658;-46
2022/08/08 09:52:46;;;;;;;5.45;1.35;;;20.90;73.10;;;;;;5085219;28;20403;-45
2022/08/08 09:55:14;;;;;;;2.60;1.00;;;20.70;72.60;;;;;;5069236;28;20036;-45
2022/08/08 09:57:43;;;;;;;3.45;1.30;;;20.40;70.40;;;;;;5081299;28;20111;-44
2022/08/08 10:00:12;;;;;;;5.68;1.63;;;20.10;71.50;;;;;;5071863;28;20036;-48
2022/08/08 10:02:43;;;;;;;4.65;1.58;;;19.90;74.60;;;;;;5060361;28;20127;-46
2022/08/08 10:05:09;;;;;;;7.57;2.20;;;19.80;75.60;;;;;;5081164;28;20362;-45
2022/08/08 10:07:35;;;;;;;5.75;1.60;;;19.70;75.90;;;;;;5078690;28;20017;-46
2022/08/08 10:10:02;;;;;;;3.42;1.58;;;19.60;75.70;;;;;;5063109;28;20035;-45
2022/08/08 10:12:37;;;;;;;8.40;1.50;;;19.60;76.30;;;;;;5070130;28;20024;-45
2022/08/08 10:15:05;;;;;;;7.13;2.75;;;19.50;76.20;;;;;;5067996;28;20066;-46
2022/08/08 10:17:32;;;;;;;4.57;1.42;;;19.50;76.40;;;;;;5084509;28;20457;-46
2022/08/08 10:20:00;;;;;;;7.68;1.75;;;19.70;75.40;;;;;;5068568;28;20037;-45
2022/08/08 10:22:30;;;;;;;7.20;2.45;;;19.90;75.80;;;;;;5078762;28;20506;-46
2022/08/08 10:25:03;;;;;;;6.22;1.27;;;19.90;73.60;;;;;;5074805;28;20043;-48
2022/08/08 10:27:41;;;;;;;4.15;1.25;;;20.00;74.00;;;;;;5079328;28;20054;-47
2022/08/08 10:30:07;;;;;;;12.68;1.77;;;20.20;73.90;;;;;;5059233;28;20024;-48
2022/08/08 10:32:35;;;;;;;5.97;1.75;;;20.40;71.90;;;;;;5059762;28;20445;-46
2022/08/08 10:35:05;;;;;;;5.10;1.80;;;20.50;71.90;;;;;;5073768;28;20768;-46
2022/08/08 10:37:33;;;;;;;3.55;1.25;;;20.70;71.70;;;;;;5071583;28;20079;-46
2022/08/08 10:40:01;;;;;;;5.18;1.58;;;20.70;70.50;;;;;;5050587;28;20039;-49
2022/08/08 10:42:33;;;;;;;4.57;1.50;;;20.90;70.90;;;;;;5069545;28;20090;-52
2022/08/08 10:45:06;;;;;;;5.25;1.30;;;20.80;71.70;;;;;;5050391;28;20047;-46
2022/08/08 10:47:31;;;;;;;5.25;1.45;;;21.00;70.50;;;;;;5082807;28;20021;-48
2022/08/08 10:50:03;;;;;;;4.97;1.30;;;21.20;70.70;;;;;;5051650;28;20475;-46
2022/08/08 10:52:36;;;;;;;6.07;1.60;;;21.30;70.60;;;;;;5071101;28;20096;-46
2022/08/08 10:55:08;;;;;;;5.78;1.10;;;21.30;68.20;;;;;;5067936;28;20111;-46
2022/08/08 10:57:39;;;;;;;3.65;1.10;;;21.30;67.30;;;;;;5071781;28;20449;-46
2022/08/08 11:00:06;;;;;;;5.90;1.58;;;21.30;66.90;;;;;;5067341;28;20016;-46
2022/08/08 11:02:35;;;;;;;4.45;1.35;;;21.30;67.20;;;;;;5068864;28;20662;-46
2022/08/08 11:05:04;;;;;;;5.22;1.50;;;21.20;67.60;;;;;;5073274;28;20473;-47
2022/08/08 11:07:33;;;;;;;5.35;1.17;;;21.00;69.70;;;;;;5069530;28;20107;-48
2022/08/08 11:10:10;;;;;;;3.13;1.27;;;21.20;67.00;;;;;;5068692;28;20017;-46
2022/08/08 11:12:44;;;;;;;4.32;0.90;;;21.30;67.30;;;;;;5082406;28;20024;-47
2022/08/08 11:15:15;;;;;;;3.65;1.00;;;21.40;67.70;;;;;;5072163;28;20032;-46
2022/08/08 11:17:42;;;;;;;3.67;1.30;;;21.40;67.10;;;;;;5084057;28;20024;-46
2022/08/08 11:20:11;;;;;;;4.15;1.02;;;21.40;67.90;;;;;;5085900;28;20046;-50
2022/08/08 11:22:38;;;;;;;4.53;0.80;;;21.40;67.30;;;;;;5081650;28;20032;-46
2022/08/08 11:25:06;;;;;;;6.65;1.38;;;21.50;68.40;;;;;;5063776;28;20040;-47
2022/08/08 11:27:39;;;;;;;2.95;1.02;;;21.40;67.40;;;;;;5081518;28;20388;-47
2022/08/08 11:30:07;;;;;;;2.83;0.93;;;21.50;68.00;;;;;;5063198;28;20020;-48
2022/08/08 11:32:37;;;;;;;2.73;1.00;;;21.40;67.20;;;;;;5081682;28;20104;-46
2022/08/08 11:35:03;;;;;;;3.85;1.30;;;21.30;67.40;;;;;;5082466;28;20265;-47
2022/08/08 11:37:30;;;;;;;5.20;1.27;;;21.40;68.30;;;;;;5064998;28;20036;-48
2022/08/08 11:39:57;;;;;;;3.88;1.30;;;21.30;69.00;;;;;;5060536;28;20032;-47
2022/08/08 11:42:24;;;;;;;6.88;1.70;;;21.30;67.80;;;;;;5081090;28;20033;-46
2022/08/08 11:44:51;;;;;;;3.67;1.27;;;21.40;68.40;;;;;;5060559;28;20705;-46
2022/08/08 11:47:18;;;;;;;2.67;1.10;;;21.40;68.30;;;;;;5063284;28;20028;-51
2022/08/08 11:49:46;;;;;;;2.38;1.08;;;21.30;67.60;;;;;;5082945;28;20314;-46
2022/08/08 11:52:15;;;;;;;4.00;1.20;;;21.20;68.00;;;;;;5084473;28;20062;-46
2022/08/08 11:54:44;;;;;;;4.27;1.40;;;21.20;69.70;;;;;;5058156;28;20115;-46
2022/08/08 11:57:24;;;;;;;4.60;1.50;;;21.20;70.20;;;;;;5074200;28;20625;-46
2022/08/08 11:59:54;;;;;;;;;;;21.00;71.20;;;;;;5073293;28;20028;-49
2022/08/08 12:02:25;;;;;;;5.68;1.85;;;21.00;70.80;;;;;;5080029;28;20704;-47
2022/08/08 12:05:00;;;;;;;6.70;2.15;;;21.00;70.40;;;;;;5110321;28;20031;-46
2022/08/08 12:07:27;;;;;;;6.57;2.17;;;21.00;71.50;;;;;;5071673;28;20029;-47
2022/08/08 12:09:55;;;;;;;7.97;1.30;;;21.20;72.10;;;;;;5071935;28;20028;-48
2022/08/08 12:12:24;;;;;;;5.40;1.73;;;21.20;72.00;;;;;;5084272;28;20040;-46
2022/08/08 12:15:01;;;;;;;5.38;1.92;;;21.40;71.70;;;;;;5077408;28;20032;-47
2022/08/08 12:17:37;;;;;;;5.25;1.98;;;21.40;70.70;;;;;;5071919;28;20503;-46
2022/08/08 12:20:05;;;;;;;5.60;1.95;;;21.40;72.20;;;;;;5071193;28;20032;-48
2022/08/08 12:22:47;;;;;;;5.38;1.73;;;21.50;70.60;;;;;;5072921;28;20025;-51
2022/08/08 12:25:20;;;;;;;4.88;1.77;;;21.60;72.50;;;;;;5080999;28;20028;-49
2022/08/08 12:27:46;;;;;;;5.22;1.45;;;21.80;72.80;;;;;;5082364;28;20032;-47
2022/08/08 12:30:12;;;;;;;5.68;1.77;;;21.80;72.50;;;;;;5072273;28;20024;-46
2022/08/08 12:32:43;;;;;;;8.75;2.08;;;21.70;73.10;;;;;;5082955;28;20113;-47
2022/08/08 12:35:20;;;;;;;5.53;2.50;;;21.60;73.20;;;;;;5089899;28;20118;-47
2022/08/08 12:37:59;;;;;;;3.70;1.40;;;21.60;74.10;;;;;;5082162;28;20044;-46
2022/08/08 12:40:36;;;;;;;4.67;1.73;;;21.70;73.10;;;;;;5071246;28;20100;-46
2022/08/08 12:43:01;;;;;;;7.03;2.13;;;21.60;72.80;;;;;;5074625;28;20131;-49
2022/08/08 12:45:37;;;;;;;6.05;2.67;;;21.60;73.50;;;;;;5057847;28;20107;-47
2022/08/08 12:48:05;;;;;;;4.22;1.80;;;21.60;73.00;;;;;;5076432;28;20036;-46
2022/08/08 12:50:42;;;;;;;6.38;1.58;;;21.50;74.40;;;;;;5053263;28;20093;-46
2022/08/08 12:53:18;;;;;;;5.35;1.85;;;21.60;74.30;;;;;;5067477;28;20032;-47
2022/08/08 12:56:03;;;;;;;7.88;2.10;;;21.60;73.60;;;;;;5084388;28;20086;-48
2022/08/08 12:58:45;;;;;;;3.97;1.40;;;21.40;74.00;;;;;;5085335;28;20132;-46
2022/08/08 13:01:12;;;;;;;4.07;1.83;;;21.40;73.80;;;;;;5073780;28;20036;-46
2022/08/08 13:03:45;;;;;;;4.13;1.80;;;21.40;73.60;;;;;;5083697;28;20469;-46
2022/08/08 13:06:20;;;;;;;7.75;2.30;;;21.20;75.00;;;;;;5073788;28;20024;-46
2022/08/08 13:08:51;;;;;;;5.20;1.98;;;21.00;75.30;;;;;;5083518;28;20017;-46
2022/08/08 13:11:18;;;;;;;4.60;1.73;;;20.90;75.80;;;;;;5080664;28;20032;-46
2022/08/08 13:13:50;;;;;;;5.68;1.65;;;20.90;74.70;;;;;;5068589;28;20051;-48
2022/08/08 13:16:21;;;;;;;4.20;1.63;;;20.90;75.70;;;;;;5077422;28;20035;-46
2022/08/08 13:18:47;;;;;;;5.53;1.83;;;20.80;76.00;;;;;;5071808;28;20391;-45
2022/08/08 13:21:13;;;;;;;4.80;1.42;;;20.90;76.00;;;;;;5070121;28;21247;-45